Pyote, Texas
Current Conditions -  °F | °C
As of 8:53 AM on Sunday 28 Dec 2014 (Local Time) from KINK Reporting Station
Moderate Fog Moderate Fog  
Wind Chill: 22°   Ceiling: 200
Heat Index: 27°   Visibility: 0.25mi
Dew Point: 24°   Wind: 5mph
Humidity: 89%   Direction: 160°SSE
Pressure: 30.23"   Gusts: NA
Location:  31.53°N, 103.13°W
Report Text: KINK 281453Z AUTO 16004KT 1/4SM FZFG VV002 M03/M04 A3023 RMK AO2 SLP244 I1002 I3005 T10281044 51006
Loading
Personal Weather Stations






























Interactive Weather Map New forecast layout! Learn more

10-Day Weather Forecast

Advertisements
Track Severe Weather on mobile